Time;durP1;ratioP1;P1;durP2;ratioP2;P2;SDS_P1;SDS_P2;PMS_P1;PMS_P2;Temp;Humidity;BMP_temperature;BMP_pressure;BME280_temperature;BME280_humidity;BME280_pressure;Samples;Min_cycle;Max_cycle;Signal;HPM_P1;HPM_P2
2022/12/17 13:08:21;;;;;;;169.30;46.28;;;;;;;-3.76;92.22;100156.47;8243359;28;20049;-75
2022/12/17 13:12:27;;;;;;;;;;;;;;;-3.76;92.15;100161.75;8256945;28;20481;-75
2022/12/17 13:16:39;;;;;;;157.55;43.63;;;;;;;-3.69;91.80;100158.13;8256179;28;19922;-75
2022/12/17 13:20:41;;;;;;;154.95;43.35;;;;;;;-3.87;92.34;100166.53;8252801;28;20042;-77
2022/12/17 13:24:44;;;;;;;162.48;43.63;;;;;;;-3.84;92.31;100166.16;8284285;28;20053;-75
2022/12/17 13:28:58;;;;;;;160.40;40.60;;;;;;;-3.98;92.29;100164.41;8381793;28;20047;-75
2022/12/17 13:33:08;;;;;;;293.48;54.30;;;;;;;-4.01;92.86;100170.03;8373477;28;20044;-75
2022/12/17 13:37:24;;;;;;;303.40;55.45;;;;;;;-3.90;92.76;100172.19;8374983;28;20059;-75
2022/12/17 13:41:30;;;;;;;492.50;84.70;;;;;;;-3.99;93.22;100183.88;8363440;28;20049;-76
2022/12/17 13:45:35;;;;;;;200.63;47.35;;;;;;;-3.99;92.95;100199.69;8381707;28;20055;-76
2022/12/17 13:49:36;;;;;;;148.05;36.97;;;;;;;-4.06;93.12;100204.09;8333503;28;20045;-77
2022/12/17 13:53:37;;;;;;;181.57;43.85;;;;;;;-4.10;93.59;100213.38;8376610;28;20044;-75
2022/12/17 13:57:44;;;;;;;193.82;47.95;;;;;;;-4.12;93.80;100220.66;8382974;28;20127;-77
2022/12/17 14:01:48;;;;;;;163.75;41.22;;;;;;;-4.17;94.26;100223.03;8370730;28;20090;-76
2022/12/17 14:05:49;;;;;;;161.07;40.05;;;;;;;-4.11;94.46;100226.75;8372796;28;20105;-76
2022/12/17 14:09:51;;;;;;;139.50;35.65;;;;;;;-4.08;94.23;100227.22;8354803;28;20060;-75
2022/12/17 14:13:52;;;;;;;129.82;33.20;;;;;;;-4.17;94.85;100228.31;8350771;28;20047;-75
2022/12/17 14:17:54;;;;;;;136.50;35.15;;;;;;;-4.18;94.95;100231.97;8346354;28;20045;-73
2022/12/17 14:21:56;;;;;;;144.48;36.65;;;;;;;-4.20;94.77;100248.97;8338394;28;20053;-73
2022/12/17 14:25:59;;;;;;;130.35;33.33;;;;;;;-4.21;95.05;100253.44;8272977;28;21906;-74
2022/12/17 14:30:00;;;;;;;124.32;32.67;;;;;;;-4.21;95.42;100248.16;8353302;28;20053;-74
2022/12/17 14:34:07;;;;;;;182.65;48.97;;;;;;;-4.26;95.46;100259.28;8334226;28;20084;-76
2022/12/17 14:38:16;;;;;;;151.43;36.45;;;;;;;-4.25;95.42;100273.28;8355607;28;20053;-75
2022/12/17 14:42:31;;;;;;;139.25;33.70;;;;;;;-4.29;95.94;100282.56;8360120;28;20563;-75
2022/12/17 14:46:33;;;;;;;130.43;31.95;;;;;;;-4.27;96.31;100280.53;8365221;28;20071;-76
2022/12/17 14:50:36;;;;;;;140.82;36.80;;;;;;;-4.20;95.97;100292.00;8363319;28;20079;-76
2022/12/17 14:54:44;;;;;;;153.93;33.55;;;;;;;-4.26;96.49;100298.00;8381914;28;20045;-75
2022/12/17 14:58:45;;;;;;;152.35;34.42;;;;;;;-4.20;96.49;100310.47;8372868;28;20064;-77
2022/12/17 15:02:50;;;;;;;148.38;33.72;;;;;;;-4.29;96.71;100301.03;8381038;28;20044;-75
2022/12/17 15:06:53;;;;;;;250.77;61.60;;;;;;;-4.24;96.63;100296.03;8378179;28;20095;-76
2022/12/17 15:10:57;;;;;;;157.75;34.13;;;;;;;-4.26;96.86;100313.84;8386536;28;20091;-77
2022/12/17 15:14:58;;;;;;;199.70;49.15;;;;;;;-4.27;97.06;100312.19;8324679;28;20068;-76
2022/12/17 15:19:00;;;;;;;171.25;43.83;;;;;;;-4.23;97.14;100313.50;8375015;28;20071;-75
2022/12/17 15:23:01;;;;;;;176.57;41.13;;;;;;;-4.21;97.24;100321.19;8380799;28;20041;-78
2022/12/17 15:27:02;;;;;;;215.73;55.30;;;;;;;-4.23;97.22;100317.94;8374511;28;20136;-77
2022/12/17 15:31:03;;;;;;;276.30;76.07;;;;;;;-4.24;97.55;100317.13;8375175;28;20411;-76
2022/12/17 15:35:05;;;;;;;195.38;51.47;;;;;;;-4.18;97.24;100326.13;8382521;28;20135;-76
2022/12/17 15:39:08;;;;;;;145.52;33.58;;;;;;;-4.18;97.33;100326.94;8378005;28;20040;-76
2022/12/17 15:43:10;;;;;;;148.38;37.72;;;;;;;-4.29;98.03;100324.75;8341896;28;20486;-76
2022/12/17 15:47:12;;;;;;;230.30;62.25;;;;;;;-4.29;98.13;100330.03;8379769;28;20048;-76
2022/12/17 15:51:13;;;;;;;139.30;35.25;;;;;;;-4.28;98.32;100334.28;8374245;28;20071;-76
2022/12/17 15:55:15;;;;;;;145.25;34.08;;;;;;;-4.28;98.44;100342.19;8388091;28;20041;-77
2022/12/17 15:59:17;;;;;;;139.60;34.45;;;;;;;-4.32;98.66;100351.47;8359285;28;20059;-76
2022/12/17 16:03:18;;;;;;;142.30;35.20;;;;;;;-4.27;98.94;100354.41;8375217;28;20135;-76
2022/12/17 16:07:19;;;;;;;146.60;35.15;;;;;;;-4.18;98.23;100353.31;8384122;28;20049;-77
2022/12/17 16:11:21;;;;;;;144.77;32.08;;;;;;;-4.23;98.43;100360.97;8384045;28;20160;-76
2022/12/17 16:15:21;;;;;;;149.18;33.83;;;;;;;-4.25;98.71;100368.22;8378895;28;20041;-76
2022/12/17 16:19:23;;;;;;;163.35;40.95;;;;;;;-4.27;99.05;100364.94;8370711;28;20048;-77
2022/12/17 16:23:24;;;;;;;151.50;37.03;;;;;;;-4.25;98.80;100378.78;8382218;28;20051;-76
2022/12/17 16:27:25;;;;;;;153.70;35.85;;;;;;;-4.30;99.12;100375.88;8383910;28;20071;-74
2022/12/17 16:31:27;;;;;;;141.52;35.03;;;;;;;-4.26;99.09;100369.22;8379879;28;20052;-77
2022/12/17 16:35:28;;;;;;;135.88;33.08;;;;;;;-4.20;99.14;100384.31;8360120;28;20293;-77
2022/12/17 16:39:30;;;;;;;146.63;38.28;;;;;;;-4.20;99.02;100397.53;8378638;28;20308;-77
2022/12/17 16:43:33;;;;;;;140.75;34.95;;;;;;;-4.17;98.95;100397.13;8384391;28;20045;-77
2022/12/17 16:47:34;;;;;;;158.82;41.03;;;;;;;-4.16;99.01;100398.78;8390098;28;20053;-76
2022/12/17 16:51:35;;;;;;;151.90;35.45;;;;;;;-4.16;99.16;100404.06;8386864;28;20044;-76
2022/12/17 16:55:46;;;;;;;149.25;36.20;;;;;;;-4.21;99.11;100416.97;8387303;28;20083;-76
2022/12/17 16:59:47;;;;;;;155.88;39.70;;;;;;;-4.17;99.22;100418.25;8379946;28;20045;-76
2022/12/17 17:03:49;;;;;;;143.73;35.47;;;;;;;-4.16;99.15;100419.88;8319171;28;20056;-76
2022/12/17 17:07:50;;;;;;;146.80;35.72;;;;;;;-4.18;99.21;100427.19;8373329;28;20518;-76
2022/12/17 17:11:58;;;;;;;154.75;37.22;;;;;;;-4.16;98.97;100425.16;8377413;28;20055;-77
2022/12/17 17:15:59;;;;;;;164.43;40.47;;;;;;;-4.16;99.12;100438.34;8339970;28;20079;-76
2022/12/17 17:20:00;;;;;;;152.93;40.08;;;;;;;-4.23;99.07;100439.28;8375929;28;20067;-77
2022/12/17 17:24:07;;;;;;;155.75;38.92;;;;;;;-4.21;99.42;100442.53;8349743;28;20059;-78
2022/12/17 17:28:08;;;;;;;164.85;39.45;;;;;;;-4.22;98.89;100452.25;8374129;28;20048;-77
2022/12/17 17:32:09;;;;;;;140.13;37.70;;;;;;;-4.30;99.44;100455.81;8388645;28;20041;-77
2022/12/17 17:36:22;;;;;;;148.93;35.03;;;;;;;-4.25;99.28;100457.91;8374204;28;20048;-77
2022/12/17 17:40:24;;;;;;;182.70;53.92;;;;;;;-4.22;99.45;100462.81;8368131;28;20044;-77
2022/12/17 17:44:25;;;;;;;150.52;36.53;;;;;;;-4.24;99.21;100464.81;8376522;28;20045;-77
2022/12/17 17:48:26;;;;;;;168.52;44.45;;;;;;;-4.25;99.48;100468.47;8374744;28;20568;-76
2022/12/17 17:52:27;;;;;;;168.38;44.80;;;;;;;-4.25;99.49;100463.19;8376302;28;20090;-77
2022/12/17 17:56:30;;;;;;;197.13;55.38;;;;;;;-4.27;99.61;100473.09;8374094;28;20045;-75
2022/12/17 18:00:31;;;;;;;131.05;39.42;;;;;;;-4.24;99.18;100475.38;8373756;28;20491;-77
2022/12/17 18:04:32;;;;;;;187.52;53.08;;;;;;;-4.28;99.30;100469.63;8366888;28;20124;-76
2022/12/17 18:08:34;;;;;;;155.70;45.95;;;;;;;-4.29;99.44;100483.84;8369989;28;20056;-77
2022/12/17 18:16:55;;;;;;;150.88;37.83;;;;;;;-4.33;99.61;100497.53;8366341;28;20041;-78
2022/12/17 18:21:09;;;;;;;152.82;42.10;;;;;;;-4.31;99.65;100500.81;8382959;28;20048;-76
2022/12/17 18:25:10;;;;;;;160.23;40.85;;;;;;;-4.28;99.08;100500.44;8369434;28;20045;-76
2022/12/17 18:29:15;;;;;;;147.18;36.13;;;;;;;-4.31;99.21;100506.09;8373904;28;20101;-76
2022/12/17 18:33:17;;;;;;;131.82;32.33;;;;;;;-4.26;99.02;100519.56;8364692;28;20051;-77
2022/12/17 18:37:19;;;;;;;143.00;33.80;;;;;;;-4.31;99.15;100517.47;8365689;28;20293;-76
2022/12/17 18:45:43;;;;;;;124.57;32.47;;;;;;;-4.43;99.67;100539.16;8372445;28;20044;-76
2022/12/17 18:49:47;;;;;;;136.90;32.90;;;;;;;-4.44;99.66;100542.81;8355820;28;20044;-77
2022/12/17 18:53:48;;;;;;;136.07;34.63;;;;;;;-4.36;99.31;100550.66;8371537;28;20454;-77
2022/12/17 18:57:52;;;;;;;120.80;33.38;;;;;;;-4.41;99.38;100563.53;8369360;28;20593;-76
2022/12/17 19:01:56;;;;;;;202.48;41.38;;;;;;;-4.38;99.24;100563.19;8344018;28;20110;-76
2022/12/17 19:05:57;;;;;;;329.00;60.22;;;;;;;-4.38;98.93;100560.53;8371278;28;20049;-78
2022/12/17 19:09:58;;;;;;;158.70;38.17;;;;;;;-4.35;99.08;100566.31;8373072;28;20049;-77
2022/12/17 19:14:00;;;;;;;195.95;42.38;;;;;;;-4.35;98.84;100573.38;8365131;28;20044;-78
2022/12/17 19:18:03;;;;;;;219.38;51.70;;;;;;;-4.37;98.90;100576.19;8368996;28;20144;-77
2022/12/17 19:22:07;;;;;;;189.40;44.55;;;;;;;-4.37;98.77;100580.66;8372766;28;20041;-78
2022/12/17 19:26:19;;;;;;;227.55;54.97;;;;;;;-4.37;98.75;100580.66;8374262;28;20076;-77
2022/12/17 19:30:20;;;;;;;182.98;39.20;;;;;;;-4.39;98.66;100593.19;8375197;28;20048;-77
2022/12/17 19:34:23;;;;;;;158.10;37.90;;;;;;;-4.51;98.83;100599.88;8373989;28;20095;-78
2022/12/17 19:38:24;;;;;;;194.13;45.13;;;;;;;-4.46;98.92;100602.81;8355399;28;20132;-77
2022/12/17 19:42:26;;;;;;;173.98;46.03;;;;;;;-4.52;98.95;100598.22;8377136;28;20068;-76
2022/12/17 19:46:29;;;;;;;142.93;35.25;;;;;;;-4.47;99.15;100607.25;8372857;28;20458;-77
2022/12/17 19:50:33;;;;;;;164.13;40.53;;;;;;;-4.45;98.80;100609.72;8371746;28;20048;-76
2022/12/17 19:54:34;;;;;;;154.57;37.10;;;;;;;-4.51;98.91;100620.97;8364670;28;20045;-76
2022/12/17 19:58:35;;;;;;;169.82;41.20;;;;;;;-4.50;99.13;100622.63;8353244;28;20104;-77
2022/12/17 20:02:36;;;;;;;129.50;35.05;;;;;;;-4.49;98.95;100645.31;8374352;28;20472;-77
2022/12/17 20:06:38;;;;;;;147.63;37.03;;;;;;;-4.52;98.85;100640.41;8381567;28;20052;-76
2022/12/17 20:10:39;;;;;;;144.57;33.40;;;;;;;-4.54;99.03;100635.31;8375774;28;20073;-77
2022/12/17 20:14:40;;;;;;;192.05;45.13;;;;;;;-4.58;98.94;100630.56;8380213;28;20077;-77
2022/12/17 20:18:41;;;;;;;126.30;33.70;;;;;;;-4.60;99.10;100653.66;8373507;28;20051;-77
2022/12/17 20:22:42;;;;;;;112.70;30.67;;;;;;;-4.59;99.18;100650.00;8373879;28;20049;-77
2022/12/17 20:26:47;;;;;;;120.68;31.17;;;;;;;-4.61;99.02;100662.53;8377968;28;20445;-77
2022/12/17 20:30:49;;;;;;;120.45;32.33;;;;;;;-4.61;98.97;100665.19;8335113;28;20049;-77
2022/12/17 20:34:51;;;;;;;120.13;29.77;;;;;;;-4.64;99.05;100668.97;8371909;28;20236;-77
2022/12/17 20:38:54;;;;;;;103.43;28.15;;;;;;;-4.61;98.56;100673.09;8368960;28;20049;-77
2022/12/17 20:42:55;;;;;;;110.25;27.38;;;;;;;-4.57;98.71;100674.38;8374539;28;20048;-77
2022/12/17 20:46:57;;;;;;;116.20;29.30;;;;;;;-4.63;98.24;100685.63;8376906;28;20507;-77
2022/12/17 20:51:05;;;;;;;106.10;27.98;;;;;;;-4.68;98.53;100692.22;8376313;28;20503;-78
2022/12/17 20:55:08;;;;;;;115.90;33.88;;;;;;;-4.75;98.36;100699.16;8375585;28;20037;-77
2022/12/17 20:59:13;;;;;;;107.43;28.83;;;;;;;-4.75;98.11;100709.72;8377863;28;20483;-77
2022/12/17 21:03:14;;;;;;;102.80;26.88;;;;;;;-4.81;98.23;100705.13;8361610;28;20521;-77
2022/12/17 21:07:16;;;;;;;101.22;26.95;;;;;;;-4.80;98.34;100706.75;8358915;28;20051;-77
2022/12/17 21:11:24;;;;;;;109.32;29.23;;;;;;;-4.85;98.09;100709.09;8373468;28;20135;-77
2022/12/17 21:15:26;;;;;;;92.32;26.67;;;;;;;-4.98;98.29;100714.09;8362429;28;20056;-77
2022/12/17 21:19:29;;;;;;;103.93;29.00;;;;;;;-4.95;98.06;100719.00;8332842;28;20058;-77
2022/12/17 21:23:34;;;;;;;99.72;27.88;;;;;;;-4.98;98.02;100714.09;8378450;28;20118;-77
2022/12/17 21:27:35;;;;;;;113.22;30.35;;;;;;;-4.94;97.98;100725.94;8381706;28;20056;-77
2022/12/17 21:31:40;;;;;;;100.97;28.10;;;;;;;-4.95;97.80;100729.53;8362896;28;20095;-77
2022/12/17 21:35:41;;;;;;;93.43;24.95;;;;;;;-4.96;97.95;100727.91;8384196;28;20143;-78
2022/12/17 21:39:43;;;;;;;103.47;27.63;;;;;;;-5.00;97.94;100726.59;8385809;28;20058;-78
2022/12/17 21:43:45;;;;;;;93.32;24.48;;;;;;;-5.00;97.29;100741.56;8380604;28;20033;-77
2022/12/17 21:47:46;;;;;;;85.93;25.23;;;;;;;-5.02;97.16;100739.09;8379519;28;20503;-77
2022/12/17 21:51:49;;;;;;;94.13;26.23;;;;;;;-5.09;97.42;100753.97;8374287;28;20049;-77
2022/12/17 21:56:04;;;;;;;98.88;25.90;;;;;;;-5.21;97.41;100752.66;8374593;28;20143;-77
2022/12/17 22:00:06;;;;;;;110.95;26.92;;;;;;;-5.23;97.18;100758.06;8377402;28;20414;-77
2022/12/17 22:04:08;;;;;;;107.68;30.30;;;;;;;-5.31;97.14;100770.44;8342114;28;20049;-77
2022/12/17 22:08:11;;;;;;;95.53;24.35;;;;;;;-5.43;97.52;100766.47;8382200;28;20045;-76
2022/12/17 22:16:38;;;;;;;101.25;27.77;;;;;;;-5.47;97.46;100765.19;8387070;28;20047;-76
2022/12/17 22:20:39;;;;;;;104.63;27.17;;;;;;;-5.60;97.65;100776.19;8372434;28;20051;-77
2022/12/17 22:24:40;;;;;;;107.95;29.70;;;;;;;-5.50;97.75;100781.31;8378309;28;20041;-77
2022/12/17 22:28:42;;;;;;;110.15;27.27;;;;;;;-5.47;97.37;100780.97;8380207;28;20055;-77
2022/12/17 22:33:01;;;;;;;103.30;27.23;;;;;;;-5.55;97.27;100790.50;8379725;28;20503;-77
2022/12/17 22:37:03;;;;;;;107.72;28.88;;;;;;;-5.62;97.28;100794.78;8385910;28;20363;-77
2022/12/17 22:41:05;;;;;;;112.65;29.50;;;;;;;-5.59;97.39;100793.63;8367620;28;20709;-77
2022/12/17 22:45:06;;;;;;;113.70;32.47;;;;;;;-5.51;97.07;100795.44;8373688;28;20388;-77
2022/12/17 22:49:08;;;;;;;107.65;30.50;;;;;;;-5.51;97.54;100790.19;8374627;28;20048;-77
2022/12/17 22:53:09;;;;;;;118.55;33.90;;;;;;;-5.46;97.35;100793.16;8382352;28;20055;-77
2022/12/17 22:57:10;;;;;;;117.05;32.55;;;;;;;-5.44;97.23;100802.50;8380156;28;20049;-77
2022/12/17 23:01:11;;;;;;;121.82;32.45;;;;;;;-5.39;96.98;100802.06;8384929;28;20043;-77
2022/12/17 23:05:13;;;;;;;124.38;31.90;;;;;;;-5.35;97.01;100816.53;8374397;28;20048;-77
2022/12/17 23:09:17;;;;;;;122.93;32.97;;;;;;;-5.41;97.06;100817.19;8381521;28;20056;-77
2022/12/17 23:13:18;;;;;;;133.77;32.97;;;;;;;-5.56;96.66;100807.31;8381967;28;20478;-77
2022/12/17 23:17:19;;;;;;;124.78;32.78;;;;;;;-5.71;96.98;100816.78;8379977;28;20052;-77
2022/12/17 23:21:23;;;;;;;125.50;33.35;;;;;;;-5.75;96.55;100818.13;8384528;28;20446;-77
2022/12/17 23:25:25;;;;;;;123.95;30.90;;;;;;;-5.87;97.12;100811.56;8390784;28;20055;-77
2022/12/17 23:29:26;;;;;;;126.00;33.40;;;;;;;-5.93;97.07;100822.72;8356854;28;20053;-77
2022/12/17 23:33:27;;;;;;;132.02;32.10;;;;;;;-5.89;96.90;100829.31;8381015;28;20122;-78
2022/12/17 23:37:28;;;;;;;145.90;34.10;;;;;;;-5.90;97.09;100843.44;8375882;28;20041;-77
2022/12/17 23:41:29;;;;;;;145.00;35.95;;;;;;;-5.84;97.13;100841.94;8384499;28;20056;-76
2022/12/17 23:45:30;;;;;;;142.98;35.85;;;;;;;-5.79;97.18;100840.47;8357217;28;20461;-77
2022/12/17 23:49:31;;;;;;;141.90;35.47;;;;;;;-5.75;97.09;100841.78;8385758;28;20045;-77
2022/12/17 23:53:34;;;;;;;147.13;35.30;;;;;;;-5.76;96.99;100855.94;8386919;28;20140;-77
2022/12/17 23:57:35;;;;;;;161.27;39.25;;;;;;;-5.83;96.76;100849.69;8341601;28;20049;-77
